sensor_id;sensor_type;location;lat;lon;timestamp;P1;durP1;ratioP1;P2;durP2;ratioP2
21798;SDS011;24973;47.178;15.316;2023-04-06T00:00:58;3.40;;;2.43;;
21798;SDS011;24973;47.178;15.316;2023-04-06T00:03:47;4.27;;;2.83;;
21798;SDS011;24973;47.178;15.316;2023-04-06T00:06:36;4.70;;;2.77;;
21798;SDS011;24973;47.178;15.316;2023-04-06T00:09:25;3.50;;;2.30;;
21798;SDS011;24973;47.178;15.316;2023-04-06T00:12:15;3.83;;;2.87;;
21798;SDS011;24973;47.178;15.316;2023-04-06T00:15:04;19.30;;;3.77;;
21798;SDS011;24973;47.178;15.316;2023-04-06T00:17:54;3.40;;;2.53;;
21798;SDS011;24973;47.178;15.316;2023-04-06T00:20:43;3.27;;;2.50;;
21798;SDS011;24973;47.178;15.316;2023-04-06T00:23:32;3.13;;;2.50;;
21798;SDS011;24973;47.178;15.316;2023-04-06T00:26:22;5.70;;;3.20;;
21798;SDS011;24973;47.178;15.316;2023-04-06T00:29:13;2.30;;;2.10;;
21798;SDS011;24973;47.178;15.316;2023-04-06T00:32:03;5.27;;;2.63;;
21798;SDS011;24973;47.178;15.316;2023-04-06T00:34:52;2.83;;;2.63;;
21798;SDS011;24973;47.178;15.316;2023-04-06T00:37:41;4.70;;;2.70;;
21798;SDS011;24973;47.178;15.316;2023-04-06T00:40:30;7.17;;;3.90;;
21798;SDS011;24973;47.178;15.316;2023-04-06T00:43:21;4.20;;;2.90;;
21798;SDS011;24973;47.178;15.316;2023-04-06T00:46:12;3.43;;;2.93;;
21798;SDS011;24973;47.178;15.316;2023-04-06T00:49:01;3.43;;;3.13;;
21798;SDS011;24973;47.178;15.316;2023-04-06T00:51:50;7.80;;;2.67;;
21798;SDS011;24973;47.178;15.316;2023-04-06T00:54:39;4.20;;;3.00;;
21798;SDS011;24973;47.178;15.316;2023-04-06T00:57:29;4.57;;;2.50;;
21798;SDS011;24973;47.178;15.316;2023-04-06T01:00:18;2.30;;;2.17;;
21798;SDS011;24973;47.178;15.316;2023-04-06T01:03:09;5.20;;;2.20;;
21798;SDS011;24973;47.178;15.316;2023-04-06T01:05:58;3.23;;;2.97;;
21798;SDS011;24973;47.178;15.316;2023-04-06T01:08:47;1.87;;;1.77;;
21798;SDS011;24973;47.178;15.316;2023-04-06T01:11:36;2.57;;;2.27;;
21798;SDS011;24973;47.178;15.316;2023-04-06T01:14:25;2.67;;;2.47;;
21798;SDS011;24973;47.178;15.316;2023-04-06T01:17:14;5.73;;;3.27;;
21798;SDS011;24973;47.178;15.316;2023-04-06T01:20:06;5.57;;;2.93;;
21798;SDS011;24973;47.178;15.316;2023-04-06T01:22:57;4.37;;;2.97;;
21798;SDS011;24973;47.178;15.316;2023-04-06T01:25:46;4.53;;;3.53;;
21798;SDS011;24973;47.178;15.316;2023-04-06T01:28:35;4.37;;;2.87;;
21798;SDS011;24973;47.178;15.316;2023-04-06T01:31:25;2.60;;;2.20;;
21798;SDS011;24973;47.178;15.316;2023-04-06T01:34:14;3.23;;;2.93;;
21798;SDS011;24973;47.178;15.316;2023-04-06T01:37:03;1.17;;;1.17;;
21798;SDS011;24973;47.178;15.316;2023-04-06T01:39:53;2.67;;;2.17;;
21798;SDS011;24973;47.178;15.316;2023-04-06T01:42:42;3.17;;;2.87;;
21798;SDS011;24973;47.178;15.316;2023-04-06T01:45:31;2.57;;;2.20;;
21798;SDS011;24973;47.178;15.316;2023-04-06T01:48:21;4.73;;;2.60;;
21798;SDS011;24973;47.178;15.316;2023-04-06T01:51:10;4.57;;;2.73;;
21798;SDS011;24973;47.178;15.316;2023-04-06T01:53:59;2.57;;;2.37;;
21798;SDS011;24973;47.178;15.316;2023-04-06T01:56:49;2.83;;;2.57;;
21798;SDS011;24973;47.178;15.316;2023-04-06T01:59:39;6.20;;;2.30;;
21798;SDS011;24973;47.178;15.316;2023-04-06T02:02:28;2.50;;;2.30;;
21798;SDS011;24973;47.178;15.316;2023-04-06T02:05:17;2.70;;;2.43;;
21798;SDS011;24973;47.178;15.316;2023-04-06T02:08:07;8.13;;;2.63;;
21798;SDS011;24973;47.178;15.316;2023-04-06T02:10:56;2.47;;;2.37;;
21798;SDS011;24973;47.178;15.316;2023-04-06T02:13:46;3.77;;;3.40;;
21798;SDS011;24973;47.178;15.316;2023-04-06T02:16:35;2.63;;;2.37;;
21798;SDS011;24973;47.178;15.316;2023-04-06T02:19:24;7.03;;;2.10;;
21798;SDS011;24973;47.178;15.316;2023-04-06T02:22:13;1.83;;;1.67;;
21798;SDS011;24973;47.178;15.316;2023-04-06T02:25:03;4.30;;;3.17;;
21798;SDS011;24973;47.178;15.316;2023-04-06T02:27:52;4.80;;;2.03;;
21798;SDS011;24973;47.178;15.316;2023-04-06T02:30:42;1.93;;;1.83;;
21798;SDS011;24973;47.178;15.316;2023-04-06T02:33:31;4.20;;;3.33;;
21798;SDS011;24973;47.178;15.316;2023-04-06T02:36:20;8.50;;;3.57;;
21798;SDS011;24973;47.178;15.316;2023-04-06T02:39:10;3.60;;;2.90;;
21798;SDS011;24973;47.178;15.316;2023-04-06T02:41:59;6.43;;;3.20;;
21798;SDS011;24973;47.178;15.316;2023-04-06T02:44:48;4.70;;;2.90;;
21798;SDS011;24973;47.178;15.316;2023-04-06T02:47:38;5.80;;;3.80;;
21798;SDS011;24973;47.178;15.316;2023-04-06T02:50:27;4.40;;;3.73;;
21798;SDS011;24973;47.178;15.316;2023-04-06T02:53:16;13.93;;;4.43;;
21798;SDS011;24973;47.178;15.316;2023-04-06T02:56:06;9.83;;;3.43;;
21798;SDS011;24973;47.178;15.316;2023-04-06T02:58:55;8.87;;;3.37;;
21798;SDS011;24973;47.178;15.316;2023-04-06T03:01:44;2.73;;;2.30;;
21798;SDS011;24973;47.178;15.316;2023-04-06T03:04:34;3.23;;;2.70;;
21798;SDS011;24973;47.178;15.316;2023-04-06T03:07:23;3.73;;;3.17;;
21798;SDS011;24973;47.178;15.316;2023-04-06T03:10:12;3.47;;;2.90;;
21798;SDS011;24973;47.178;15.316;2023-04-06T03:13:01;9.17;;;3.07;;
21798;SDS011;24973;47.178;15.316;2023-04-06T03:15:50;5.20;;;3.23;;
21798;SDS011;24973;47.178;15.316;2023-04-06T03:18:40;8.13;;;3.53;;
21798;SDS011;24973;47.178;15.316;2023-04-06T03:21:32;5.37;;;3.63;;
21798;SDS011;24973;47.178;15.316;2023-04-06T03:24:21;6.33;;;3.20;;
21798;SDS011;24973;47.178;15.316;2023-04-06T03:27:10;4.60;;;3.43;;
21798;SDS011;24973;47.178;15.316;2023-04-06T03:29:59;7.27;;;4.57;;
21798;SDS011;24973;47.178;15.316;2023-04-06T03:32:49;4.07;;;3.17;;
21798;SDS011;24973;47.178;15.316;2023-04-06T03:35:38;5.20;;;2.77;;
21798;SDS011;24973;47.178;15.316;2023-04-06T03:38:28;5.07;;;2.97;;
21798;SDS011;24973;47.178;15.316;2023-04-06T03:41:17;3.70;;;3.20;;
21798;SDS011;24973;47.178;15.316;2023-04-06T03:44:07;2.87;;;2.63;;
21798;SDS011;24973;47.178;15.316;2023-04-06T03:46:56;6.23;;;3.50;;
21798;SDS011;24973;47.178;15.316;2023-04-06T03:49:45;7.93;;;2.80;;
21798;SDS011;24973;47.178;15.316;2023-04-06T03:52:35;4.20;;;2.47;;
21798;SDS011;24973;47.178;15.316;2023-04-06T03:55:25;3.37;;;2.83;;
21798;SDS011;24973;47.178;15.316;2023-04-06T03:58:14;3.37;;;3.07;;
21798;SDS011;24973;47.178;15.316;2023-04-06T04:01:03;3.17;;;2.60;;
21798;SDS011;24973;47.178;15.316;2023-04-06T04:03:56;3.60;;;2.13;;
21798;SDS011;24973;47.178;15.316;2023-04-06T04:06:46;5.13;;;3.20;;
21798;SDS011;24973;47.178;15.316;2023-04-06T04:09:35;3.73;;;3.23;;
21798;SDS011;24973;47.178;15.316;2023-04-06T04:12:25;5.17;;;2.97;;
21798;SDS011;24973;47.178;15.316;2023-04-06T04:15:14;7.27;;;3.47;;
21798;SDS011;24973;47.178;15.316;2023-04-06T04:18:04;4.47;;;2.57;;
21798;SDS011;24973;47.178;15.316;2023-04-06T04:20:53;7.93;;;4.67;;
21798;SDS011;24973;47.178;15.316;2023-04-06T04:23:42;5.87;;;4.13;;
21798;SDS011;24973;47.178;15.316;2023-04-06T04:26:31;5.23;;;3.47;;
21798;SDS011;24973;47.178;15.316;2023-04-06T04:29:21;6.67;;;3.53;;
21798;SDS011;24973;47.178;15.316;2023-04-06T04:32:10;3.53;;;2.77;;
21798;SDS011;24973;47.178;15.316;2023-04-06T04:35:00;3.97;;;2.63;;
21798;SDS011;24973;47.178;15.316;2023-04-06T04:37:49;4.00;;;2.83;;
21798;SDS011;24973;47.178;15.316;2023-04-06T04:40:38;5.07;;;3.27;;
21798;SDS011;24973;47.178;15.316;2023-04-06T04:43:27;3.27;;;2.10;;
21798;SDS011;24973;47.178;15.316;2023-04-06T04:46:19;5.33;;;3.70;;
21798;SDS011;24973;47.178;15.316;2023-04-06T04:49:08;4.57;;;3.90;;
21798;SDS011;24973;47.178;15.316;2023-04-06T04:51:57;4.40;;;3.40;;
21798;SDS011;24973;47.178;15.316;2023-04-06T04:54:46;3.83;;;3.00;;
21798;SDS011;24973;47.178;15.316;2023-04-06T04:57:35;4.83;;;2.97;;
21798;SDS011;24973;47.178;15.316;2023-04-06T05:00:24;3.40;;;2.90;;
21798;SDS011;24973;47.178;15.316;2023-04-06T05:03:16;2.03;;;1.93;;
21798;SDS011;24973;47.178;15.316;2023-04-06T05:06:08;3.97;;;3.00;;
21798;SDS011;24973;47.178;15.316;2023-04-06T05:08:58;3.87;;;2.67;;
21798;SDS011;24973;47.178;15.316;2023-04-06T05:11:47;3.63;;;2.30;;
21798;SDS011;24973;47.178;15.316;2023-04-06T05:14:36;2.43;;;1.43;;
21798;SDS011;24973;47.178;15.316;2023-04-06T05:17:25;4.87;;;3.27;;
21798;SDS011;24973;47.178;15.316;2023-04-06T05:20:16;3.90;;;3.50;;
21798;SDS011;24973;47.178;15.316;2023-04-06T05:23:05;7.47;;;2.80;;
21798;SDS011;24973;47.178;15.316;2023-04-06T05:25:54;9.07;;;3.60;;
21798;SDS011;24973;47.178;15.316;2023-04-06T05:28:43;4.13;;;3.77;;
21798;SDS011;24973;47.178;15.316;2023-04-06T05:31:32;3.77;;;3.40;;
21798;SDS011;24973;47.178;15.316;2023-04-06T05:34:21;4.80;;;2.80;;
21798;SDS011;24973;47.178;15.316;2023-04-06T05:37:12;7.87;;;3.43;;
21798;SDS011;24973;47.178;15.316;2023-04-06T05:40:01;17.90;;;4.93;;
21798;SDS011;24973;47.178;15.316;2023-04-06T05:42:50;4.03;;;3.37;;
21798;SDS011;24973;47.178;15.316;2023-04-06T05:45:40;8.37;;;3.10;;
21798;SDS011;24973;47.178;15.316;2023-04-06T05:48:29;3.70;;;3.13;;
21798;SDS011;24973;47.178;15.316;2023-04-06T05:51:18;4.87;;;2.50;;
21798;SDS011;24973;47.178;15.316;2023-04-06T05:54:08;5.20;;;3.30;;
21798;SDS011;24973;47.178;15.316;2023-04-06T05:56:57;9.57;;;3.23;;
21798;SDS011;24973;47.178;15.316;2023-04-06T05:59:46;4.83;;;3.10;;
21798;SDS011;24973;47.178;15.316;2023-04-06T06:02:35;8.73;;;3.40;;
21798;SDS011;24973;47.178;15.316;2023-04-06T06:05:26;4.60;;;2.50;;
21798;SDS011;24973;47.178;15.316;2023-04-06T06:08:15;6.87;;;3.43;;
21798;SDS011;24973;47.178;15.316;2023-04-06T06:11:05;4.73;;;2.60;;
21798;SDS011;24973;47.178;15.316;2023-04-06T06:13:54;3.07;;;2.27;;
21798;SDS011;24973;47.178;15.316;2023-04-06T06:16:43;11.10;;;7.43;;
21798;SDS011;24973;47.178;15.316;2023-04-06T06:19:32;5.47;;;3.17;;
21798;SDS011;24973;47.178;15.316;2023-04-06T06:22:21;5.70;;;3.00;;
21798;SDS011;24973;47.178;15.316;2023-04-06T06:25:10;9.70;;;3.00;;
21798;SDS011;24973;47.178;15.316;2023-04-06T06:28:01;7.07;;;3.17;;
21798;SDS011;24973;47.178;15.316;2023-04-06T06:30:50;8.17;;;3.73;;
21798;SDS011;24973;47.178;15.316;2023-04-06T06:33:42;4.23;;;2.70;;
21798;SDS011;24973;47.178;15.316;2023-04-06T06:36:31;1.87;;;1.77;;
21798;SDS011;24973;47.178;15.316;2023-04-06T06:39:21;3.17;;;2.83;;
21798;SDS011;24973;47.178;15.316;2023-04-06T06:42:11;7.50;;;3.27;;
21798;SDS011;24973;47.178;15.316;2023-04-06T06:45:02;3.63;;;2.40;;
21798;SDS011;24973;47.178;15.316;2023-04-06T06:47:51;4.50;;;3.30;;
21798;SDS011;24973;47.178;15.316;2023-04-06T06:50:40;3.53;;;3.10;;
21798;SDS011;24973;47.178;15.316;2023-04-06T06:53:30;4.27;;;3.30;;
21798;SDS011;24973;47.178;15.316;2023-04-06T06:56:19;5.27;;;3.40;;
21798;SDS011;24973;47.178;15.316;2023-04-06T06:59:08;7.43;;;4.13;;
21798;SDS011;24973;47.178;15.316;2023-04-06T07:01:59;5.33;;;3.63;;
21798;SDS011;24973;47.178;15.316;2023-04-06T07:04:48;6.20;;;4.63;;
21798;SDS011;24973;47.178;15.316;2023-04-06T07:07:37;6.97;;;3.73;;
21798;SDS011;24973;47.178;15.316;2023-04-06T07:10:26;12.93;;;4.50;;
21798;SDS011;24973;47.178;15.316;2023-04-06T07:13:15;5.27;;;4.33;;
21798;SDS011;24973;47.178;15.316;2023-04-06T07:16:08;7.37;;;3.43;;
21798;SDS011;24973;47.178;15.316;2023-04-06T07:18:59;9.20;;;4.03;;
21798;SDS011;24973;47.178;15.316;2023-04-06T07:21:48;6.80;;;3.93;;
21798;SDS011;24973;47.178;15.316;2023-04-06T07:24:37;7.43;;;3.20;;
21798;SDS011;24973;47.178;15.316;2023-04-06T07:27:26;6.20;;;3.90;;
21798;SDS011;24973;47.178;15.316;2023-04-06T07:30:15;8.93;;;4.23;;
21798;SDS011;24973;47.178;15.316;2023-04-06T07:33:05;7.47;;;4.20;;
21798;SDS011;24973;47.178;15.316;2023-04-06T07:35:55;8.60;;;3.97;;
21798;SDS011;24973;47.178;15.316;2023-04-06T07:38:45;5.13;;;4.63;;
21798;SDS011;24973;47.178;15.316;2023-04-06T07:41:35;10.60;;;4.20;;
21798;SDS011;24973;47.178;15.316;2023-04-06T07:44:24;5.70;;;3.67;;
21798;SDS011;24973;47.178;15.316;2023-04-06T07:47:13;8.63;;;4.10;;
21798;SDS011;24973;47.178;15.316;2023-04-06T07:50:02;3.90;;;2.73;;
21798;SDS011;24973;47.178;15.316;2023-04-06T07:52:53;7.67;;;4.23;;
21798;SDS011;24973;47.178;15.316;2023-04-06T07:55:42;7.03;;;3.67;;
21798;SDS011;24973;47.178;15.316;2023-04-06T07:58:31;5.50;;;3.23;;
21798;SDS011;24973;47.178;15.316;2023-04-06T08:01:21;8.73;;;4.03;;
21798;SDS011;24973;47.178;15.316;2023-04-06T08:04:10;5.23;;;3.17;;
21798;SDS011;24973;47.178;15.316;2023-04-06T08:06:59;5.37;;;2.87;;
21798;SDS011;24973;47.178;15.316;2023-04-06T08:09:49;6.80;;;3.37;;
21798;SDS011;24973;47.178;15.316;2023-04-06T08:12:39;4.17;;;3.10;;
21798;SDS011;24973;47.178;15.316;2023-04-06T08:15:28;3.27;;;2.97;;
21798;SDS011;24973;47.178;15.316;2023-04-06T08:18:17;8.53;;;2.63;;
21798;SDS011;24973;47.178;15.316;2023-04-06T08:21:06;4.63;;;3.43;;
21798;SDS011;24973;47.178;15.316;2023-04-06T08:23:55;4.80;;;3.30;;
21798;SDS011;24973;47.178;15.316;2023-04-06T08:26:45;4.30;;;3.00;;
21798;SDS011;24973;47.178;15.316;2023-04-06T08:29:35;4.70;;;2.30;;
21798;SDS011;24973;47.178;15.316;2023-04-06T08:32:24;4.13;;;2.00;;
21798;SDS011;24973;47.178;15.316;2023-04-06T08:35:13;3.93;;;2.40;;
21798;SDS011;24973;47.178;15.316;2023-04-06T08:38:03;3.97;;;2.80;;
21798;SDS011;24973;47.178;15.316;2023-04-06T08:40:52;2.90;;;2.60;;
21798;SDS011;24973;47.178;15.316;2023-04-06T08:43:44;7.03;;;2.53;;
21798;SDS011;24973;47.178;15.316;2023-04-06T08:46:35;7.63;;;2.80;;
21798;SDS011;24973;47.178;15.316;2023-04-06T08:49:24;3.73;;;2.67;;
21798;SDS011;24973;47.178;15.316;2023-04-06T08:52:14;4.23;;;2.63;;
21798;SDS011;24973;47.178;15.316;2023-04-06T08:55:04;3.00;;;2.80;;
21798;SDS011;24973;47.178;15.316;2023-04-06T08:57:54;4.03;;;2.40;;
21798;SDS011;24973;47.178;15.316;2023-04-06T09:00:44;4.33;;;3.27;;
21798;SDS011;24973;47.178;15.316;2023-04-06T09:03:35;3.40;;;3.03;;
21798;SDS011;24973;47.178;15.316;2023-04-06T09:06:26;3.73;;;2.57;;
21798;SDS011;24973;47.178;15.316;2023-04-06T09:09:15;5.43;;;2.13;;
21798;SDS011;24973;47.178;15.316;2023-04-06T09:12:05;2.80;;;2.47;;
21798;SDS011;24973;47.178;15.316;2023-04-06T09:14:57;3.67;;;2.17;;
21798;SDS011;24973;47.178;15.316;2023-04-06T09:17:48;3.10;;;2.17;;
21798;SDS011;24973;47.178;15.316;2023-04-06T09:20:38;2.40;;;2.23;;
21798;SDS011;24973;47.178;15.316;2023-04-06T09:23:27;4.13;;;2.43;;
21798;SDS011;24973;47.178;15.316;2023-04-06T09:26:17;3.97;;;2.47;;
21798;SDS011;24973;47.178;15.316;2023-04-06T09:29:06;3.03;;;2.17;;
21798;SDS011;24973;47.178;15.316;2023-04-06T09:32:01;2.50;;;2.30;;
21798;SDS011;24973;47.178;15.316;2023-04-06T09:34:53;4.00;;;2.07;;
21798;SDS011;24973;47.178;15.316;2023-04-06T09:37:42;2.83;;;2.37;;
21798;SDS011;24973;47.178;15.316;2023-04-06T09:40:31;4.20;;;2.37;;
21798;SDS011;24973;47.178;15.316;2023-04-06T09:43:23;4.87;;;2.07;;
21798;SDS011;24973;47.178;15.316;2023-04-06T09:46:13;16.23;;;9.13;;
21798;SDS011;24973;47.178;15.316;2023-04-06T09:49:02;4.37;;;2.70;;
21798;SDS011;24973;47.178;15.316;2023-04-06T09:51:55;2.23;;;2.03;;
21798;SDS011;24973;47.178;15.316;2023-04-06T09:54:46;4.40;;;2.40;;
21798;SDS011;24973;47.178;15.316;2023-04-06T09:57:41;3.20;;;2.77;;
21798;SDS011;24973;47.178;15.316;2023-04-06T10:00:34;4.40;;;2.17;;
21798;SDS011;24973;47.178;15.316;2023-04-06T10:03:31;3.03;;;1.60;;
21798;SDS011;24973;47.178;15.316;2023-04-06T10:06:26;2.40;;;1.80;;
21798;SDS011;24973;47.178;15.316;2023-04-06T10:09:18;3.07;;;2.10;;
21798;SDS011;24973;47.178;15.316;2023-04-06T10:12:08;3.60;;;1.50;;
21798;SDS011;24973;47.178;15.316;2023-04-06T10:14:58;3.80;;;2.03;;
21798;SDS011;24973;47.178;15.316;2023-04-06T10:17:47;2.43;;;1.73;;
21798;SDS011;24973;47.178;15.316;2023-04-06T10:20:38;1.60;;;1.50;;
21798;SDS011;24973;47.178;15.316;2023-04-06T10:23:31;1.50;;;1.37;;
21798;SDS011;24973;47.178;15.316;2023-04-06T10:26:23;1.57;;;1.40;;
21798;SDS011;24973;47.178;15.316;2023-04-06T10:29:12;1.60;;;1.40;;
21798;SDS011;24973;47.178;15.316;2023-04-06T10:32:01;1.90;;;1.60;;
21798;SDS011;24973;47.178;15.316;2023-04-06T10:34:50;1.50;;;1.37;;
21798;SDS011;24973;47.178;15.316;2023-04-06T10:37:50;1.37;;;1.27;;
21798;SDS011;24973;47.178;15.316;2023-04-06T10:40:40;3.47;;;1.30;;
21798;SDS011;24973;47.178;15.316;2023-04-06T10:43:34;1.60;;;1.40;;
21798;SDS011;24973;47.178;15.316;2023-04-06T10:46:27;2.13;;;1.50;;
21798;SDS011;24973;47.178;15.316;2023-04-06T10:49:16;1.43;;;1.20;;
21798;SDS011;24973;47.178;15.316;2023-04-06T10:52:06;1.50;;;1.40;;
21798;SDS011;24973;47.178;15.316;2023-04-06T10:54:55;3.70;;;1.30;;
21798;SDS011;24973;47.178;15.316;2023-04-06T10:57:46;3.13;;;1.60;;
21798;SDS011;24973;47.178;15.316;2023-04-06T11:00:36;1.70;;;1.57;;
21798;SDS011;24973;47.178;15.316;2023-04-06T11:03:42;1.50;;;1.40;;
21798;SDS011;24973;47.178;15.316;2023-04-06T11:06:31;2.47;;;1.20;;
21798;SDS011;24973;47.178;15.316;2023-04-06T11:09:24;1.50;;;1.20;;
21798;SDS011;24973;47.178;15.316;2023-04-06T11:12:20;2.53;;;1.50;;
21798;SDS011;24973;47.178;15.316;2023-04-06T11:15:09;2.57;;;1.30;;
21798;SDS011;24973;47.178;15.316;2023-04-06T11:18:02;1.63;;;1.37;;
21798;SDS011;24973;47.178;15.316;2023-04-06T11:20:52;1.67;;;1.43;;
21798;SDS011;24973;47.178;15.316;2023-04-06T11:23:41;3.80;;;1.67;;
21798;SDS011;24973;47.178;15.316;2023-04-06T11:26:30;2.90;;;1.47;;
21798;SDS011;24973;47.178;15.316;2023-04-06T11:29:20;1.73;;;1.50;;
21798;SDS011;24973;47.178;15.316;2023-04-06T11:32:09;1.93;;;1.30;;
21798;SDS011;24973;47.178;15.316;2023-04-06T11:35:00;1.17;;;1.07;;
21798;SDS011;24973;47.178;15.316;2023-04-06T11:37:49;3.00;;;1.40;;
21798;SDS011;24973;47.178;15.316;2023-04-06T11:40:38;1.80;;;1.47;;
21798;SDS011;24973;47.178;15.316;2023-04-06T11:43:27;2.17;;;1.30;;
21798;SDS011;24973;47.178;15.316;2023-04-06T11:46:17;5.17;;;1.60;;
21798;SDS011;24973;47.178;15.316;2023-04-06T11:49:06;1.03;;;1.00;;
21798;SDS011;24973;47.178;15.316;2023-04-06T11:51:57;3.27;;;1.47;;
21798;SDS011;24973;47.178;15.316;2023-04-06T11:54:47;2.57;;;1.63;;
21798;SDS011;24973;47.178;15.316;2023-04-06T11:57:38;1.70;;;1.60;;
21798;SDS011;24973;47.178;15.316;2023-04-06T12:00:30;1.57;;;1.47;;
21798;SDS011;24973;47.178;15.316;2023-04-06T12:03:21;1.57;;;1.27;;
21798;SDS011;24973;47.178;15.316;2023-04-06T12:06:10;2.37;;;1.33;;
21798;SDS011;24973;47.178;15.316;2023-04-06T12:09:00;3.17;;;1.40;;
21798;SDS011;24973;47.178;15.316;2023-04-06T12:11:49;1.43;;;1.33;;
21798;SDS011;24973;47.178;15.316;2023-04-06T12:14:38;1.90;;;1.80;;
21798;SDS011;24973;47.178;15.316;2023-04-06T12:17:27;2.50;;;1.57;;
21798;SDS011;24973;47.178;15.316;2023-04-06T12:20:17;1.27;;;0.90;;
21798;SDS011;24973;47.178;15.316;2023-04-06T12:23:11;2.37;;;1.40;;
21798;SDS011;24973;47.178;15.316;2023-04-06T12:26:01;1.87;;;0.90;;
21798;SDS011;24973;47.178;15.316;2023-04-06T12:28:51;1.40;;;1.30;;
21798;SDS011;24973;47.178;15.316;2023-04-06T12:31:40;1.57;;;1.43;;
21798;SDS011;24973;47.178;15.316;2023-04-06T12:34:31;3.23;;;1.70;;
21798;SDS011;24973;47.178;15.316;2023-04-06T12:37:20;2.53;;;1.37;;
21798;SDS011;24973;47.178;15.316;2023-04-06T12:40:10;1.60;;;1.20;;
21798;SDS011;24973;47.178;15.316;2023-04-06T12:43:02;2.77;;;1.13;;
21798;SDS011;24973;47.178;15.316;2023-04-06T12:45:51;1.30;;;1.20;;
21798;SDS011;24973;47.178;15.316;2023-04-06T12:48:40;2.43;;;1.60;;
21798;SDS011;24973;47.178;15.316;2023-04-06T12:51:30;5.63;;;1.53;;
21798;SDS011;24973;47.178;15.316;2023-04-06T12:54:19;1.57;;;1.23;;
21798;SDS011;24973;47.178;15.316;2023-04-06T12:57:08;4.37;;;1.40;;
21798;SDS011;24973;47.178;15.316;2023-04-06T12:59:58;1.27;;;0.90;;
21798;SDS011;24973;47.178;15.316;2023-04-06T13:02:47;7.63;;;4.47;;
21798;SDS011;24973;47.178;15.316;2023-04-06T13:05:38;2.03;;;1.80;;
21798;SDS011;24973;47.178;15.316;2023-04-06T13:08:32;2.27;;;1.70;;
21798;SDS011;24973;47.178;15.316;2023-04-06T13:11:21;1.57;;;1.23;;
21798;SDS011;24973;47.178;15.316;2023-04-06T13:14:12;4.20;;;1.43;;
21798;SDS011;24973;47.178;15.316;2023-04-06T13:17:03;2.87;;;1.40;;
21798;SDS011;24973;47.178;15.316;2023-04-06T13:19:53;2.87;;;1.33;;
21798;SDS011;24973;47.178;15.316;2023-04-06T13:22:42;4.40;;;3.00;;
21798;SDS011;24973;47.178;15.316;2023-04-06T13:25:31;2.40;;;2.00;;
21798;SDS011;24973;47.178;15.316;2023-04-06T13:28:21;1.20;;;1.10;;
21798;SDS011;24973;47.178;15.316;2023-04-06T13:31:10;1.30;;;1.20;;
21798;SDS011;24973;47.178;15.316;2023-04-06T13:34:01;1.93;;;1.30;;
21798;SDS011;24973;47.178;15.316;2023-04-06T13:36:50;3.43;;;1.70;;
21798;SDS011;24973;47.178;15.316;2023-04-06T13:39:39;2.33;;;1.30;;
21798;SDS011;24973;47.178;15.316;2023-04-06T13:42:28;1.50;;;1.00;;
21798;SDS011;24973;47.178;15.316;2023-04-06T13:45:18;1.20;;;1.00;;
21798;SDS011;24973;47.178;15.316;2023-04-06T13:48:07;1.97;;;0.90;;
21798;SDS011;24973;47.178;15.316;2023-04-06T13:50:57;1.50;;;0.93;;
21798;SDS011;24973;47.178;15.316;2023-04-06T13:53:55;0.87;;;0.87;;
21798;SDS011;24973;47.178;15.316;2023-04-06T13:56:44;3.50;;;0.97;;
21798;SDS011;24973;47.178;15.316;2023-04-06T13:59:33;1.27;;;1.10;;
21798;SDS011;24973;47.178;15.316;2023-04-06T14:02:22;2.13;;;1.33;;
21798;SDS011;24973;47.178;15.316;2023-04-06T14:05:14;1.33;;;1.20;;
21798;SDS011;24973;47.178;15.316;2023-04-06T14:08:05;1.00;;;1.00;;
21798;SDS011;24973;47.178;15.316;2023-04-06T14:10:54;0.90;;;0.77;;
21798;SDS011;24973;47.178;15.316;2023-04-06T14:13:43;1.73;;;0.90;;
21798;SDS011;24973;47.178;15.316;2023-04-06T14:16:33;3.07;;;1.20;;
21798;SDS011;24973;47.178;15.316;2023-04-06T14:19:22;1.70;;;1.37;;
21798;SDS011;24973;47.178;15.316;2023-04-06T14:22:11;0.93;;;0.87;;
21798;SDS011;24973;47.178;15.316;2023-04-06T14:25:01;3.23;;;1.20;;
21798;SDS011;24973;47.178;15.316;2023-04-06T14:27:50;1.80;;;1.10;;
21798;SDS011;24973;47.178;15.316;2023-04-06T14:30:39;3.90;;;1.47;;
21798;SDS011;24973;47.178;15.316;2023-04-06T14:33:29;1.13;;;0.90;;
21798;SDS011;24973;47.178;15.316;2023-04-06T14:36:18;1.33;;;1.23;;
21798;SDS011;24973;47.178;15.316;2023-04-06T14:39:07;1.97;;;1.23;;
21798;SDS011;24973;47.178;15.316;2023-04-06T14:41:58;1.33;;;1.00;;
21798;SDS011;24973;47.178;15.316;2023-04-06T14:44:47;1.17;;;1.00;;
21798;SDS011;24973;47.178;15.316;2023-04-06T14:47:37;0.93;;;0.77;;
21798;SDS011;24973;47.178;15.316;2023-04-06T14:50:26;2.57;;;0.90;;
21798;SDS011;24973;47.178;15.316;2023-04-06T14:53:15;2.27;;;1.20;;
21798;SDS011;24973;47.178;15.316;2023-04-06T14:56:04;1.40;;;0.93;;
21798;SDS011;24973;47.178;15.316;2023-04-06T14:58:56;4.00;;;1.10;;
21798;SDS011;24973;47.178;15.316;2023-04-06T15:01:48;1.60;;;1.00;;
21798;SDS011;24973;47.178;15.316;2023-04-06T15:04:38;1.60;;;0.90;;
21798;SDS011;24973;47.178;15.316;2023-04-06T15:07:28;1.57;;;0.83;;
21798;SDS011;24973;47.178;15.316;2023-04-06T15:10:17;2.17;;;1.00;;
21798;SDS011;24973;47.178;15.316;2023-04-06T15:13:06;1.57;;;1.13;;
21798;SDS011;24973;47.178;15.316;2023-04-06T15:15:57;1.13;;;0.87;;
21798;SDS011;24973;47.178;15.316;2023-04-06T15:18:47;1.67;;;1.37;;
21798;SDS011;24973;47.178;15.316;2023-04-06T15:21:36;1.20;;;1.10;;
21798;SDS011;24973;47.178;15.316;2023-04-06T15:24:25;1.17;;;1.07;;
21798;SDS011;24973;47.178;15.316;2023-04-06T15:27:14;1.20;;;1.10;;
21798;SDS011;24973;47.178;15.316;2023-04-06T15:30:03;3.17;;;1.07;;
21798;SDS011;24973;47.178;15.316;2023-04-06T15:32:55;1.70;;;1.00;;
21798;SDS011;24973;47.178;15.316;2023-04-06T15:35:47;2.13;;;1.30;;
21798;SDS011;24973;47.178;15.316;2023-04-06T15:38:36;1.50;;;1.40;;
21798;SDS011;24973;47.178;15.316;2023-04-06T15:41:25;1.30;;;0.90;;
21798;SDS011;24973;47.178;15.316;2023-04-06T15:44:14;2.17;;;1.23;;
21798;SDS011;24973;47.178;15.316;2023-04-06T15:47:04;1.17;;;0.90;;
21798;SDS011;24973;47.178;15.316;2023-04-06T15:49:54;1.83;;;1.33;;
21798;SDS011;24973;47.178;15.316;2023-04-06T15:52:43;1.27;;;1.17;;
21798;SDS011;24973;47.178;15.316;2023-04-06T15:55:32;1.20;;;0.87;;
21798;SDS011;24973;47.178;15.316;2023-04-06T15:58:21;1.47;;;1.07;;
21798;SDS011;24973;47.178;15.316;2023-04-06T16:01:10;2.70;;;1.07;;
21798;SDS011;24973;47.178;15.316;2023-04-06T16:04:00;1.77;;;1.10;;
21798;SDS011;24973;47.178;15.316;2023-04-06T16:06:51;1.23;;;1.13;;
21798;SDS011;24973;47.178;15.316;2023-04-06T16:09:40;1.30;;;1.20;;
21798;SDS011;24973;47.178;15.316;2023-04-06T16:12:29;1.37;;;1.00;;
21798;SDS011;24973;47.178;15.316;2023-04-06T16:15:19;1.67;;;1.13;;
21798;SDS011;24973;47.178;15.316;2023-04-06T16:18:08;1.87;;;1.07;;
21798;SDS011;24973;47.178;15.316;2023-04-06T16:20:57;1.10;;;1.00;;
21798;SDS011;24973;47.178;15.316;2023-04-06T16:23:47;1.60;;;1.30;;
21798;SDS011;24973;47.178;15.316;2023-04-06T16:26:36;1.13;;;1.00;;
21798;SDS011;24973;47.178;15.316;2023-04-06T16:29:26;1.47;;;1.20;;
21798;SDS011;24973;47.178;15.316;2023-04-06T16:32:17;2.33;;;1.40;;
21798;SDS011;24973;47.178;15.316;2023-04-06T16:35:06;1.67;;;1.00;;
21798;SDS011;24973;47.178;15.316;2023-04-06T16:37:55;2.10;;;1.20;;
21798;SDS011;24973;47.178;15.316;2023-04-06T16:40:46;1.20;;;1.10;;
21798;SDS011;24973;47.178;15.316;2023-04-06T16:43:34;3.93;;;1.20;;
21798;SDS011;24973;47.178;15.316;2023-04-06T16:46:27;3.00;;;2.70;;